sensor_id;sensor_type;location;lat;lon;timestamp;P1;durP1;ratioP1;P2;durP2;ratioP2
53961;SDS011;39868;53.398;6.564;2023-06-10T00:02:27;4.53;;;3.65;;
53961;SDS011;39868;53.398;6.564;2023-06-10T00:04:54;4.25;;;3.03;;
53961;SDS011;39868;53.398;6.564;2023-06-10T00:07:24;6.53;;;3.15;;
53961;SDS011;39868;53.398;6.564;2023-06-10T00:09:51;4.03;;;3.20;;
53961;SDS011;39868;53.398;6.564;2023-06-10T00:12:19;4.05;;;2.80;;
53961;SDS011;39868;53.398;6.564;2023-06-10T00:14:47;3.50;;;2.70;;
53961;SDS011;39868;53.398;6.564;2023-06-10T00:17:17;4.65;;;2.75;;
53961;SDS011;39868;53.398;6.564;2023-06-10T00:19:44;3.63;;;2.80;;
53961;SDS011;39868;53.398;6.564;2023-06-10T00:22:13;4.30;;;2.80;;
53961;SDS011;39868;53.398;6.564;2023-06-10T00:24:41;4.10;;;2.83;;
53961;SDS011;39868;53.398;6.564;2023-06-10T00:27:09;2.92;;;2.63;;
53961;SDS011;39868;53.398;6.564;2023-06-10T00:29:36;3.33;;;2.85;;
53961;SDS011;39868;53.398;6.564;2023-06-10T00:32:05;5.53;;;2.83;;
53961;SDS011;39868;53.398;6.564;2023-06-10T00:34:34;4.22;;;2.97;;
53961;SDS011;39868;53.398;6.564;2023-06-10T00:37:02;4.30;;;2.97;;
53961;SDS011;39868;53.398;6.564;2023-06-10T00:39:29;3.97;;;2.90;;
53961;SDS011;39868;53.398;6.564;2023-06-10T00:41:57;3.58;;;2.70;;
53961;SDS011;39868;53.398;6.564;2023-06-10T00:44:25;5.18;;;3.05;;
53961;SDS011;39868;53.398;6.564;2023-06-10T00:46:53;5.80;;;3.05;;
53961;SDS011;39868;53.398;6.564;2023-06-10T00:49:22;4.05;;;2.70;;
53961;SDS011;39868;53.398;6.564;2023-06-10T00:51:50;4.07;;;3.00;;
53961;SDS011;39868;53.398;6.564;2023-06-10T00:54:19;4.47;;;2.67;;
53961;SDS011;39868;53.398;6.564;2023-06-10T00:56:47;3.60;;;2.58;;
53961;SDS011;39868;53.398;6.564;2023-06-10T00:59:16;4.38;;;2.88;;
53961;SDS011;39868;53.398;6.564;2023-06-10T01:01:45;3.80;;;2.85;;
53961;SDS011;39868;53.398;6.564;2023-06-10T01:04:13;4.40;;;2.80;;
53961;SDS011;39868;53.398;6.564;2023-06-10T01:12:02;3.80;;;2.80;;
53961;SDS011;39868;53.398;6.564;2023-06-10T01:14:41;4.90;;;3.15;;
53961;SDS011;39868;53.398;6.564;2023-06-10T01:17:11;4.07;;;2.63;;
53961;SDS011;39868;53.398;6.564;2023-06-10T01:19:44;4.70;;;3.05;;
53961;SDS011;39868;53.398;6.564;2023-06-10T01:22:11;5.30;;;2.85;;
53961;SDS011;39868;53.398;6.564;2023-06-10T01:24:43;3.78;;;2.70;;
53961;SDS011;39868;53.398;6.564;2023-06-10T01:27:12;4.97;;;2.70;;
53961;SDS011;39868;53.398;6.564;2023-06-10T01:29:46;3.05;;;2.50;;
53961;SDS011;39868;53.398;6.564;2023-06-10T01:32:24;3.50;;;2.88;;
53961;SDS011;39868;53.398;6.564;2023-06-10T01:34:57;4.95;;;2.80;;
53961;SDS011;39868;53.398;6.564;2023-06-10T01:37:28;3.47;;;2.42;;
53961;SDS011;39868;53.398;6.564;2023-06-10T01:39:57;4.30;;;2.72;;
53961;SDS011;39868;53.398;6.564;2023-06-10T01:42:30;4.00;;;2.70;;
53961;SDS011;39868;53.398;6.564;2023-06-10T01:45:01;2.92;;;2.53;;
53961;SDS011;39868;53.398;6.564;2023-06-10T01:47:29;4.40;;;2.70;;
53961;SDS011;39868;53.398;6.564;2023-06-10T01:49:58;3.85;;;2.80;;
53961;SDS011;39868;53.398;6.564;2023-06-10T01:52:27;3.67;;;2.47;;
53961;SDS011;39868;53.398;6.564;2023-06-10T01:54:54;4.57;;;2.92;;
53961;SDS011;39868;53.398;6.564;2023-06-10T01:57:22;6.57;;;2.88;;
53961;SDS011;39868;53.398;6.564;2023-06-10T01:59:49;4.50;;;2.75;;
53961;SDS011;39868;53.398;6.564;2023-06-10T02:02:16;4.28;;;2.90;;
53961;SDS011;39868;53.398;6.564;2023-06-10T02:04:44;3.28;;;2.70;;
53961;SDS011;39868;53.398;6.564;2023-06-10T02:07:11;5.18;;;2.85;;
53961;SDS011;39868;53.398;6.564;2023-06-10T02:09:38;4.68;;;2.63;;
53961;SDS011;39868;53.398;6.564;2023-06-10T02:12:06;3.13;;;2.42;;
53961;SDS011;39868;53.398;6.564;2023-06-10T02:14:34;4.07;;;3.08;;
53961;SDS011;39868;53.398;6.564;2023-06-10T02:17:01;3.25;;;2.45;;
53961;SDS011;39868;53.398;6.564;2023-06-10T02:19:29;4.60;;;2.72;;
53961;SDS011;39868;53.398;6.564;2023-06-10T02:21:57;3.40;;;2.70;;
53961;SDS011;39868;53.398;6.564;2023-06-10T02:24:24;4.22;;;2.60;;
53961;SDS011;39868;53.398;6.564;2023-06-10T02:26:52;4.35;;;2.83;;
53961;SDS011;39868;53.398;6.564;2023-06-10T02:29:21;3.22;;;2.45;;
53961;SDS011;39868;53.398;6.564;2023-06-10T02:31:48;3.15;;;2.33;;
53961;SDS011;39868;53.398;6.564;2023-06-10T02:34:16;6.07;;;2.78;;
53961;SDS011;39868;53.398;6.564;2023-06-10T02:36:44;3.33;;;2.70;;
53961;SDS011;39868;53.398;6.564;2023-06-10T02:39:11;4.32;;;3.08;;
53961;SDS011;39868;53.398;6.564;2023-06-10T02:41:40;3.55;;;2.90;;
53961;SDS011;39868;53.398;6.564;2023-06-10T02:44:08;3.17;;;2.63;;
53961;SDS011;39868;53.398;6.564;2023-06-10T02:46:35;3.33;;;2.55;;
53961;SDS011;39868;53.398;6.564;2023-06-10T02:49:06;4.38;;;2.72;;
53961;SDS011;39868;53.398;6.564;2023-06-10T02:51:34;5.97;;;2.65;;
53961;SDS011;39868;53.398;6.564;2023-06-10T02:54:03;4.88;;;3.15;;
53961;SDS011;39868;53.398;6.564;2023-06-10T02:56:31;3.17;;;2.65;;
53961;SDS011;39868;53.398;6.564;2023-06-10T02:59:02;3.80;;;2.83;;
53961;SDS011;39868;53.398;6.564;2023-06-10T03:01:30;4.65;;;2.65;;
53961;SDS011;39868;53.398;6.564;2023-06-10T03:04:05;4.70;;;2.90;;
53961;SDS011;39868;53.398;6.564;2023-06-10T03:06:34;3.20;;;2.55;;
53961;SDS011;39868;53.398;6.564;2023-06-10T03:09:12;3.40;;;2.50;;
53961;SDS011;39868;53.398;6.564;2023-06-10T03:11:42;5.28;;;2.85;;
53961;SDS011;39868;53.398;6.564;2023-06-10T03:14:10;4.07;;;2.72;;
53961;SDS011;39868;53.398;6.564;2023-06-10T03:16:37;5.18;;;2.95;;
53961;SDS011;39868;53.398;6.564;2023-06-10T03:19:10;3.70;;;2.58;;
53961;SDS011;39868;53.398;6.564;2023-06-10T03:21:43;5.07;;;2.78;;
53961;SDS011;39868;53.398;6.564;2023-06-10T03:24:13;4.63;;;2.97;;
53961;SDS011;39868;53.398;6.564;2023-06-10T03:26:40;6.38;;;2.85;;
53961;SDS011;39868;53.398;6.564;2023-06-10T03:29:09;4.30;;;3.03;;
53961;SDS011;39868;53.398;6.564;2023-06-10T03:31:36;6.32;;;3.40;;
53961;SDS011;39868;53.398;6.564;2023-06-10T03:34:06;4.70;;;2.88;;
53961;SDS011;39868;53.398;6.564;2023-06-10T03:36:33;5.95;;;3.10;;
53961;SDS011;39868;53.398;6.564;2023-06-10T03:39:04;5.97;;;2.65;;
53961;SDS011;39868;53.398;6.564;2023-06-10T03:41:33;4.32;;;3.30;;
53961;SDS011;39868;53.398;6.564;2023-06-10T03:44:00;7.80;;;3.28;;
53961;SDS011;39868;53.398;6.564;2023-06-10T03:46:27;4.28;;;2.85;;
53961;SDS011;39868;53.398;6.564;2023-06-10T03:48:55;4.03;;;2.67;;
53961;SDS011;39868;53.398;6.564;2023-06-10T03:51:22;5.07;;;3.10;;
53961;SDS011;39868;53.398;6.564;2023-06-10T03:53:50;6.55;;;3.17;;
53961;SDS011;39868;53.398;6.564;2023-06-10T03:56:18;3.47;;;2.40;;
53961;SDS011;39868;53.398;6.564;2023-06-10T03:58:45;4.78;;;2.53;;
53961;SDS011;39868;53.398;6.564;2023-06-10T04:01:13;4.80;;;2.92;;
53961;SDS011;39868;53.398;6.564;2023-06-10T04:03:41;3.47;;;2.90;;
53961;SDS011;39868;53.398;6.564;2023-06-10T04:06:10;4.85;;;3.17;;
53961;SDS011;39868;53.398;6.564;2023-06-10T04:08:38;4.75;;;3.38;;
53961;SDS011;39868;53.398;6.564;2023-06-10T04:11:05;5.07;;;2.97;;
53961;SDS011;39868;53.398;6.564;2023-06-10T04:13:34;5.22;;;2.97;;
53961;SDS011;39868;53.398;6.564;2023-06-10T04:16:01;4.47;;;3.00;;
53961;SDS011;39868;53.398;6.564;2023-06-10T04:18:29;4.50;;;2.70;;
53961;SDS011;39868;53.398;6.564;2023-06-10T04:21:01;4.30;;;2.88;;
53961;SDS011;39868;53.398;6.564;2023-06-10T04:23:31;4.22;;;2.60;;
53961;SDS011;39868;53.398;6.564;2023-06-10T04:25:58;6.70;;;2.95;;
53961;SDS011;39868;53.398;6.564;2023-06-10T04:28:26;4.75;;;3.22;;
53961;SDS011;39868;53.398;6.564;2023-06-10T04:30:54;3.97;;;3.13;;
53961;SDS011;39868;53.398;6.564;2023-06-10T04:33:22;3.92;;;3.33;;
53961;SDS011;39868;53.398;6.564;2023-06-10T04:35:50;6.28;;;2.92;;
53961;SDS011;39868;53.398;6.564;2023-06-10T04:38:20;6.40;;;3.00;;
53961;SDS011;39868;53.398;6.564;2023-06-10T04:40:48;3.05;;;2.67;;
53961;SDS011;39868;53.398;6.564;2023-06-10T04:43:17;4.65;;;2.75;;
53961;SDS011;39868;53.398;6.564;2023-06-10T04:45:45;2.83;;;2.20;;
53961;SDS011;39868;53.398;6.564;2023-06-10T04:48:14;4.78;;;3.13;;
53961;SDS011;39868;53.398;6.564;2023-06-10T04:50:41;4.40;;;3.13;;
53961;SDS011;39868;53.398;6.564;2023-06-10T04:53:09;3.80;;;2.70;;
53961;SDS011;39868;53.398;6.564;2023-06-10T04:55:39;6.43;;;2.83;;
53961;SDS011;39868;53.398;6.564;2023-06-10T04:58:07;4.60;;;2.80;;
53961;SDS011;39868;53.398;6.564;2023-06-10T05:00:34;5.55;;;3.13;;
53961;SDS011;39868;53.398;6.564;2023-06-10T05:03:02;7.07;;;3.47;;
53961;SDS011;39868;53.398;6.564;2023-06-10T05:05:29;6.75;;;2.83;;
53961;SDS011;39868;53.398;6.564;2023-06-10T05:07:57;5.35;;;3.40;;
53961;SDS011;39868;53.398;6.564;2023-06-10T05:10:24;8.55;;;3.65;;
53961;SDS011;39868;53.398;6.564;2023-06-10T05:12:52;6.32;;;3.25;;
53961;SDS011;39868;53.398;6.564;2023-06-10T05:15:19;4.32;;;2.97;;
53961;SDS011;39868;53.398;6.564;2023-06-10T05:17:47;3.97;;;3.45;;
53961;SDS011;39868;53.398;6.564;2023-06-10T05:20:14;5.85;;;3.10;;
53961;SDS011;39868;53.398;6.564;2023-06-10T05:22:42;5.35;;;2.92;;
53961;SDS011;39868;53.398;6.564;2023-06-10T05:25:09;6.30;;;3.20;;
53961;SDS011;39868;53.398;6.564;2023-06-10T05:27:37;6.93;;;3.35;;
53961;SDS011;39868;53.398;6.564;2023-06-10T05:30:04;4.07;;;2.80;;
53961;SDS011;39868;53.398;6.564;2023-06-10T05:32:34;3.85;;;2.92;;
53961;SDS011;39868;53.398;6.564;2023-06-10T05:35:01;4.82;;;2.95;;
53961;SDS011;39868;53.398;6.564;2023-06-10T05:37:34;6.20;;;3.63;;
53961;SDS011;39868;53.398;6.564;2023-06-10T05:40:03;4.80;;;3.10;;
53961;SDS011;39868;53.398;6.564;2023-06-10T05:42:31;6.88;;;3.15;;
53961;SDS011;39868;53.398;6.564;2023-06-10T05:44:59;4.80;;;3.38;;
53961;SDS011;39868;53.398;6.564;2023-06-10T05:47:26;3.17;;;2.88;;
53961;SDS011;39868;53.398;6.564;2023-06-10T05:49:54;8.43;;;3.20;;
53961;SDS011;39868;53.398;6.564;2023-06-10T05:52:21;6.32;;;3.45;;
53961;SDS011;39868;53.398;6.564;2023-06-10T05:54:49;7.05;;;3.75;;
53961;SDS011;39868;53.398;6.564;2023-06-10T05:57:17;6.97;;;3.70;;
53961;SDS011;39868;53.398;6.564;2023-06-10T05:59:44;4.85;;;3.70;;
53961;SDS011;39868;53.398;6.564;2023-06-10T06:02:11;5.82;;;3.17;;
53961;SDS011;39868;53.398;6.564;2023-06-10T06:04:39;6.65;;;3.78;;
53961;SDS011;39868;53.398;6.564;2023-06-10T06:07:06;4.57;;;3.22;;
53961;SDS011;39868;53.398;6.564;2023-06-10T06:09:34;5.60;;;3.25;;
53961;SDS011;39868;53.398;6.564;2023-06-10T06:12:01;6.43;;;3.33;;
53961;SDS011;39868;53.398;6.564;2023-06-10T06:14:30;3.75;;;3.13;;
53961;SDS011;39868;53.398;6.564;2023-06-10T06:16:58;6.45;;;3.20;;
53961;SDS011;39868;53.398;6.564;2023-06-10T06:19:26;4.47;;;2.78;;
53961;SDS011;39868;53.398;6.564;2023-06-10T06:21:53;6.82;;;3.22;;
53961;SDS011;39868;53.398;6.564;2023-06-10T06:24:21;10.40;;;2.83;;
53961;SDS011;39868;53.398;6.564;2023-06-10T06:26:48;5.43;;;2.90;;
53961;SDS011;39868;53.398;6.564;2023-06-10T06:29:16;5.35;;;2.90;;
53961;SDS011;39868;53.398;6.564;2023-06-10T06:31:43;4.55;;;3.33;;
53961;SDS011;39868;53.398;6.564;2023-06-10T06:34:11;5.40;;;3.28;;
53961;SDS011;39868;53.398;6.564;2023-06-10T06:36:42;5.50;;;3.17;;
53961;SDS011;39868;53.398;6.564;2023-06-10T06:39:09;4.15;;;2.85;;
53961;SDS011;39868;53.398;6.564;2023-06-10T06:41:36;6.10;;;3.40;;
53961;SDS011;39868;53.398;6.564;2023-06-10T06:44:04;8.77;;;3.58;;
53961;SDS011;39868;53.398;6.564;2023-06-10T06:46:36;5.03;;;3.20;;
53961;SDS011;39868;53.398;6.564;2023-06-10T06:49:04;5.05;;;3.08;;
53961;SDS011;39868;53.398;6.564;2023-06-10T06:51:31;4.05;;;3.00;;
53961;SDS011;39868;53.398;6.564;2023-06-10T06:53:59;6.75;;;3.65;;
53961;SDS011;39868;53.398;6.564;2023-06-10T06:56:26;4.00;;;3.30;;
53961;SDS011;39868;53.398;6.564;2023-06-10T06:58:54;4.03;;;3.15;;
53961;SDS011;39868;53.398;6.564;2023-06-10T07:01:23;4.65;;;3.10;;
53961;SDS011;39868;53.398;6.564;2023-06-10T07:03:51;6.18;;;3.00;;
53961;SDS011;39868;53.398;6.564;2023-06-10T07:06:19;8.35;;;3.30;;
53961;SDS011;39868;53.398;6.564;2023-06-10T07:08:46;5.38;;;3.22;;
53961;SDS011;39868;53.398;6.564;2023-06-10T07:11:13;3.92;;;2.90;;
53961;SDS011;39868;53.398;6.564;2023-06-10T07:13:41;3.83;;;2.92;;
53961;SDS011;39868;53.398;6.564;2023-06-10T07:16:08;5.00;;;3.20;;
53961;SDS011;39868;53.398;6.564;2023-06-10T07:18:36;3.58;;;2.88;;
53961;SDS011;39868;53.398;6.564;2023-06-10T07:21:03;5.05;;;2.97;;
53961;SDS011;39868;53.398;6.564;2023-06-10T07:23:31;4.35;;;2.70;;
53961;SDS011;39868;53.398;6.564;2023-06-10T07:25:58;4.38;;;3.28;;
53961;SDS011;39868;53.398;6.564;2023-06-10T07:28:26;5.03;;;3.40;;
53961;SDS011;39868;53.398;6.564;2023-06-10T07:30:53;4.93;;;3.13;;
53961;SDS011;39868;53.398;6.564;2023-06-10T07:33:21;3.58;;;2.80;;
53961;SDS011;39868;53.398;6.564;2023-06-10T07:35:48;5.65;;;3.40;;
53961;SDS011;39868;53.398;6.564;2023-06-10T07:38:16;7.13;;;3.42;;
53961;SDS011;39868;53.398;6.564;2023-06-10T07:40:44;4.18;;;3.20;;
53961;SDS011;39868;53.398;6.564;2023-06-10T07:43:14;3.60;;;2.90;;
53961;SDS011;39868;53.398;6.564;2023-06-10T07:45:41;5.35;;;3.53;;
53961;SDS011;39868;53.398;6.564;2023-06-10T07:48:09;5.43;;;3.53;;
53961;SDS011;39868;53.398;6.564;2023-06-10T07:50:37;4.90;;;3.47;;
53961;SDS011;39868;53.398;6.564;2023-06-10T07:53:04;6.63;;;3.45;;
53961;SDS011;39868;53.398;6.564;2023-06-10T07:55:32;7.05;;;3.88;;
53961;SDS011;39868;53.398;6.564;2023-06-10T07:57:59;5.43;;;3.58;;
53961;SDS011;39868;53.398;6.564;2023-06-10T08:00:27;6.30;;;3.80;;
53961;SDS011;39868;53.398;6.564;2023-06-10T08:02:54;4.15;;;3.25;;
53961;SDS011;39868;53.398;6.564;2023-06-10T08:05:22;4.65;;;3.28;;
53961;SDS011;39868;53.398;6.564;2023-06-10T08:07:50;5.00;;;3.42;;
53961;SDS011;39868;53.398;6.564;2023-06-10T08:10:17;5.90;;;3.42;;
53961;SDS011;39868;53.398;6.564;2023-06-10T08:12:45;5.45;;;3.40;;
53961;SDS011;39868;53.398;6.564;2023-06-10T08:15:12;4.22;;;3.03;;
53961;SDS011;39868;53.398;6.564;2023-06-10T08:17:40;3.58;;;3.20;;
53961;SDS011;39868;53.398;6.564;2023-06-10T08:20:07;5.22;;;3.55;;
53961;SDS011;39868;53.398;6.564;2023-06-10T08:22:35;5.25;;;3.78;;
53961;SDS011;39868;53.398;6.564;2023-06-10T08:25:02;7.18;;;3.83;;
53961;SDS011;39868;53.398;6.564;2023-06-10T08:27:30;4.15;;;3.72;;
53961;SDS011;39868;53.398;6.564;2023-06-10T08:29:57;4.50;;;3.60;;
53961;SDS011;39868;53.398;6.564;2023-06-10T08:32:27;4.68;;;3.92;;
53961;SDS011;39868;53.398;6.564;2023-06-10T08:34:54;7.28;;;3.40;;
53961;SDS011;39868;53.398;6.564;2023-06-10T08:37:23;4.22;;;3.50;;
53961;SDS011;39868;53.398;6.564;2023-06-10T08:39:51;4.63;;;3.60;;
53961;SDS011;39868;53.398;6.564;2023-06-10T08:44:55;5.15;;;3.75;;
53961;SDS011;39868;53.398;6.564;2023-06-10T08:47:23;5.00;;;4.07;;
53961;SDS011;39868;53.398;6.564;2023-06-10T08:49:51;5.60;;;4.00;;
53961;SDS011;39868;53.398;6.564;2023-06-10T08:52:23;4.20;;;3.60;;
53961;SDS011;39868;53.398;6.564;2023-06-10T08:54:59;4.25;;;3.85;;
53961;SDS011;39868;53.398;6.564;2023-06-10T08:57:30;5.28;;;4.10;;
53961;SDS011;39868;53.398;6.564;2023-06-10T08:59:57;5.13;;;4.10;;
53961;SDS011;39868;53.398;6.564;2023-06-10T09:02:25;6.35;;;4.10;;
53961;SDS011;39868;53.398;6.564;2023-06-10T09:04:53;5.40;;;4.63;;
53961;SDS011;39868;53.398;6.564;2023-06-10T09:07:24;6.38;;;4.30;;
53961;SDS011;39868;53.398;6.564;2023-06-10T09:09:52;5.40;;;3.90;;
53961;SDS011;39868;53.398;6.564;2023-06-10T09:12:21;4.90;;;3.53;;
53961;SDS011;39868;53.398;6.564;2023-06-10T09:14:48;4.65;;;4.10;;
53961;SDS011;39868;53.398;6.564;2023-06-10T09:17:16;4.47;;;3.55;;
53961;SDS011;39868;53.398;6.564;2023-06-10T09:19:44;4.22;;;3.47;;
53961;SDS011;39868;53.398;6.564;2023-06-10T09:22:13;3.85;;;3.38;;
53961;SDS011;39868;53.398;6.564;2023-06-10T09:24:40;4.30;;;3.42;;
53961;SDS011;39868;53.398;6.564;2023-06-10T09:27:08;4.32;;;3.90;;
53961;SDS011;39868;53.398;6.564;2023-06-10T09:32:37;4.00;;;3.70;;
53961;SDS011;39868;53.398;6.564;2023-06-10T09:35:08;6.25;;;3.85;;
53961;SDS011;39868;53.398;6.564;2023-06-10T09:37:38;5.60;;;4.10;;
53961;SDS011;39868;53.398;6.564;2023-06-10T09:40:06;5.65;;;3.70;;
53961;SDS011;39868;53.398;6.564;2023-06-10T09:42:36;5.15;;;4.20;;
53961;SDS011;39868;53.398;6.564;2023-06-10T09:45:05;4.88;;;4.00;;
53961;SDS011;39868;53.398;6.564;2023-06-10T09:47:34;5.30;;;4.07;;
53961;SDS011;39868;53.398;6.564;2023-06-10T09:50:02;6.20;;;4.30;;
53961;SDS011;39868;53.398;6.564;2023-06-10T09:52:30;7.82;;;4.10;;
53961;SDS011;39868;53.398;6.564;2023-06-10T09:55:01;4.38;;;3.85;;
53961;SDS011;39868;53.398;6.564;2023-06-10T09:57:32;5.15;;;4.55;;
53961;SDS011;39868;53.398;6.564;2023-06-10T10:00:03;5.65;;;4.05;;
53961;SDS011;39868;53.398;6.564;2023-06-10T10:02:51;9.80;;;5.30;;
53961;SDS011;39868;53.398;6.564;2023-06-10T10:05:21;6.70;;;4.47;;
53961;SDS011;39868;53.398;6.564;2023-06-10T10:07:50;5.75;;;4.40;;
53961;SDS011;39868;53.398;6.564;2023-06-10T10:10:19;5.10;;;4.55;;
53961;SDS011;39868;53.398;6.564;2023-06-10T10:12:50;4.75;;;4.20;;
53961;SDS011;39868;53.398;6.564;2023-06-10T10:15:23;5.28;;;4.30;;
53961;SDS011;39868;53.398;6.564;2023-06-10T10:18:06;5.97;;;4.27;;
53961;SDS011;39868;53.398;6.564;2023-06-10T10:20:40;5.30;;;4.13;;
53961;SDS011;39868;53.398;6.564;2023-06-10T10:23:18;5.78;;;4.32;;
53961;SDS011;39868;53.398;6.564;2023-06-10T10:25:52;5.45;;;4.07;;
53961;SDS011;39868;53.398;6.564;2023-06-10T10:28:23;5.05;;;4.65;;
53961;SDS011;39868;53.398;6.564;2023-06-10T10:30:54;8.07;;;5.18;;
53961;SDS011;39868;53.398;6.564;2023-06-10T10:35:56;5.55;;;4.97;;
53961;SDS011;39868;53.398;6.564;2023-06-10T10:38:24;6.13;;;4.88;;
53961;SDS011;39868;53.398;6.564;2023-06-10T10:40:52;7.00;;;5.07;;
53961;SDS011;39868;53.398;6.564;2023-06-10T10:43:22;7.30;;;4.57;;
53961;SDS011;39868;53.398;6.564;2023-06-10T10:45:59;5.78;;;5.18;;
53961;SDS011;39868;53.398;6.564;2023-06-10T10:48:33;6.65;;;5.53;;
53961;SDS011;39868;53.398;6.564;2023-06-10T10:51:05;8.48;;;5.20;;
53961;SDS011;39868;53.398;6.564;2023-06-10T10:53:32;6.72;;;5.60;;
53961;SDS011;39868;53.398;6.564;2023-06-10T10:56:04;5.78;;;5.18;;
53961;SDS011;39868;53.398;6.564;2023-06-10T10:58:34;7.10;;;5.20;;
53961;SDS011;39868;53.398;6.564;2023-06-10T11:01:11;7.45;;;5.18;;
53961;SDS011;39868;53.398;6.564;2023-06-10T11:03:45;6.53;;;4.93;;
53961;SDS011;39868;53.398;6.564;2023-06-10T11:06:14;6.40;;;4.70;;
53961;SDS011;39868;53.398;6.564;2023-06-10T11:11:18;8.07;;;5.40;;
53961;SDS011;39868;53.398;6.564;2023-06-10T11:16:40;10.15;;;5.65;;
53961;SDS011;39868;53.398;6.564;2023-06-10T11:19:09;7.38;;;5.45;;
53961;SDS011;39868;53.398;6.564;2023-06-10T11:21:56;9.43;;;5.70;;
53961;SDS011;39868;53.398;6.564;2023-06-10T11:24:31;7.75;;;5.18;;
53961;SDS011;39868;53.398;6.564;2023-06-10T11:27:15;10.48;;;5.55;;
53961;SDS011;39868;53.398;6.564;2023-06-10T11:32:32;9.98;;;5.68;;
53961;SDS011;39868;53.398;6.564;2023-06-10T11:35:04;6.70;;;5.30;;
53961;SDS011;39868;53.398;6.564;2023-06-10T11:37:34;7.97;;;5.65;;
53961;SDS011;39868;53.398;6.564;2023-06-10T11:40:02;8.88;;;5.78;;
53961;SDS011;39868;53.398;6.564;2023-06-10T11:42:30;9.13;;;6.30;;
53961;SDS011;39868;53.398;6.564;2023-06-10T11:44:58;10.15;;;7.40;;
53961;SDS011;39868;53.398;6.564;2023-06-10T11:47:26;8.23;;;6.05;;
53961;SDS011;39868;53.398;6.564;2023-06-10T11:49:55;8.07;;;5.80;;
53961;SDS011;39868;53.398;6.564;2023-06-10T11:52:27;6.90;;;4.95;;
53961;SDS011;39868;53.398;6.564;2023-06-10T11:55:00;5.30;;;4.60;;
53961;SDS011;39868;53.398;6.564;2023-06-10T11:57:27;11.43;;;5.82;;
53961;SDS011;39868;53.398;6.564;2023-06-10T11:59:55;8.13;;;5.55;;
53961;SDS011;39868;53.398;6.564;2023-06-10T12:02:22;7.57;;;5.10;;
53961;SDS011;39868;53.398;6.564;2023-06-10T12:04:50;5.30;;;4.78;;
53961;SDS011;39868;53.398;6.564;2023-06-10T12:07:18;8.43;;;5.35;;
53961;SDS011;39868;53.398;6.564;2023-06-10T12:09:58;8.75;;;4.55;;
53961;SDS011;39868;53.398;6.564;2023-06-10T12:12:44;8.05;;;4.93;;
53961;SDS011;39868;53.398;6.564;2023-06-10T12:15:19;9.80;;;4.72;;
53961;SDS011;39868;53.398;6.564;2023-06-10T12:17:52;7.93;;;4.72;;
53961;SDS011;39868;53.398;6.564;2023-06-10T12:20:32;10.95;;;5.72;;
53961;SDS011;39868;53.398;6.564;2023-06-10T12:23:01;8.48;;;4.65;;
53961;SDS011;39868;53.398;6.564;2023-06-10T12:25:36;8.35;;;4.60;;
53961;SDS011;39868;53.398;6.564;2023-06-10T12:28:09;5.15;;;4.60;;
53961;SDS011;39868;53.398;6.564;2023-06-10T12:30:37;7.40;;;4.57;;
53961;SDS011;39868;53.398;6.564;2023-06-10T12:33:04;9.52;;;4.93;;
53961;SDS011;39868;53.398;6.564;2023-06-10T12:35:49;9.07;;;5.15;;
53961;SDS011;39868;53.398;6.564;2023-06-10T12:38:25;7.18;;;4.35;;
53961;SDS011;39868;53.398;6.564;2023-06-10T12:41:02;6.50;;;4.90;;
53961;SDS011;39868;53.398;6.564;2023-06-10T12:43:32;5.28;;;4.20;;
53961;SDS011;39868;53.398;6.564;2023-06-10T12:46:09;8.50;;;4.55;;
53961;SDS011;39868;53.398;6.564;2023-06-10T12:48:48;7.78;;;4.70;;
53961;SDS011;39868;53.398;6.564;2023-06-10T12:51:18;7.68;;;4.57;;
53961;SDS011;39868;53.398;6.564;2023-06-10T12:53:46;5.38;;;4.20;;
53961;SDS011;39868;53.398;6.564;2023-06-10T12:56:13;5.65;;;3.85;;
53961;SDS011;39868;53.398;6.564;2023-06-10T12:58:41;4.90;;;3.75;;
53961;SDS011;39868;53.398;6.564;2023-06-10T13:01:12;9.05;;;5.00;;
53961;SDS011;39868;53.398;6.564;2023-06-10T13:03:39;7.45;;;4.30;;
53961;SDS011;39868;53.398;6.564;2023-06-10T13:06:07;6.45;;;3.88;;
53961;SDS011;39868;53.398;6.564;2023-06-10T13:08:34;8.13;;;3.97;;
53961;SDS011;39868;53.398;6.564;2023-06-10T13:11:02;6.00;;;3.80;;
53961;SDS011;39868;53.398;6.564;2023-06-10T13:13:29;4.97;;;4.40;;
53961;SDS011;39868;53.398;6.564;2023-06-10T13:15:56;6.47;;;4.15;;
53961;SDS011;39868;53.398;6.564;2023-06-10T13:18:24;5.65;;;4.65;;
53961;SDS011;39868;53.398;6.564;2023-06-10T13:20:52;7.95;;;4.90;;
53961;SDS011;39868;53.398;6.564;2023-06-10T13:23:20;4.72;;;4.28;;
53961;SDS011;39868;53.398;6.564;2023-06-10T13:25:47;7.47;;;4.40;;
53961;SDS011;39868;53.398;6.564;2023-06-10T13:28:15;5.60;;;4.60;;
53961;SDS011;39868;53.398;6.564;2023-06-10T13:30:42;7.35;;;4.78;;
53961;SDS011;39868;53.398;6.564;2023-06-10T13:33:09;8.45;;;4.88;;
53961;SDS011;39868;53.398;6.564;2023-06-10T13:35:37;6.53;;;4.50;;
53961;SDS011;39868;53.398;6.564;2023-06-10T13:38:05;7.05;;;5.10;;
53961;SDS011;39868;53.398;6.564;2023-06-10T13:40:33;10.15;;;4.88;;
53961;SDS011;39868;53.398;6.564;2023-06-10T13:43:01;11.07;;;4.90;;
53961;SDS011;39868;53.398;6.564;2023-06-10T13:45:29;5.13;;;4.28;;
53961;SDS011;39868;53.398;6.564;2023-06-10T13:47:57;8.07;;;4.93;;
53961;SDS011;39868;53.398;6.564;2023-06-10T13:50:24;6.22;;;5.03;;
53961;SDS011;39868;53.398;6.564;2023-06-10T13:52:51;6.15;;;4.10;;
53961;SDS011;39868;53.398;6.564;2023-06-10T13:55:19;7.60;;;4.60;;
53961;SDS011;39868;53.398;6.564;2023-06-10T13:57:47;8.43;;;5.20;;
53961;SDS011;39868;53.398;6.564;2023-06-10T14:00:15;7.68;;;4.95;;
53961;SDS011;39868;53.398;6.564;2023-06-10T14:02:43;5.38;;;4.65;;
53961;SDS011;39868;53.398;6.564;2023-06-10T14:05:11;5.07;;;4.60;;
53961;SDS011;39868;53.398;6.564;2023-06-10T14:07:38;5.68;;;4.18;;
53961;SDS011;39868;53.398;6.564;2023-06-10T14:10:07;6.85;;;4.72;;
53961;SDS011;39868;53.398;6.564;2023-06-10T14:12:36;6.22;;;4.60;;
53961;SDS011;39868;53.398;6.564;2023-06-10T14:15:03;8.75;;;5.20;;
53961;SDS011;39868;53.398;6.564;2023-06-10T14:17:31;7.93;;;5.15;;
53961;SDS011;39868;53.398;6.564;2023-06-10T14:19:59;7.15;;;5.05;;
53961;SDS011;39868;53.398;6.564;2023-06-10T14:22:26;6.50;;;4.90;;
53961;SDS011;39868;53.398;6.564;2023-06-10T14:24:53;5.95;;;4.55;;
53961;SDS011;39868;53.398;6.564;2023-06-10T14:27:21;7.68;;;4.65;;
53961;SDS011;39868;53.398;6.564;2023-06-10T14:29:48;5.88;;;4.97;;
53961;SDS011;39868;53.398;6.564;2023-06-10T14:32:16;9.38;;;5.05;;
53961;SDS011;39868;53.398;6.564;2023-06-10T14:34:43;5.13;;;4.63;;
53961;SDS011;39868;53.398;6.564;2023-06-10T14:37:11;6.97;;;4.68;;
53961;SDS011;39868;53.398;6.564;2023-06-10T14:39:38;5.82;;;4.60;;
53961;SDS011;39868;53.398;6.564;2023-06-10T14:42:06;5.95;;;5.03;;
53961;SDS011;39868;53.398;6.564;2023-06-10T14:44:34;7.07;;;4.72;;
53961;SDS011;39868;53.398;6.564;2023-06-10T14:47:01;6.20;;;4.75;;
53961;SDS011;39868;53.398;6.564;2023-06-10T14:49:29;5.28;;;4.57;;
53961;SDS011;39868;53.398;6.564;2023-06-10T14:51:56;5.00;;;4.60;;
53961;SDS011;39868;53.398;6.564;2023-06-10T14:54:23;6.18;;;4.78;;
53961;SDS011;39868;53.398;6.564;2023-06-10T14:56:51;5.43;;;4.72;;
53961;SDS011;39868;53.398;6.564;2023-06-10T14:59:18;5.25;;;4.40;;
53961;SDS011;39868;53.398;6.564;2023-06-10T15:01:46;5.15;;;4.60;;
53961;SDS011;39868;53.398;6.564;2023-06-10T15:04:13;4.70;;;4.35;;
53961;SDS011;39868;53.398;6.564;2023-06-10T15:06:41;6.70;;;4.50;;
53961;SDS011;39868;53.398;6.564;2023-06-10T15:09:09;6.85;;;4.43;;
53961;SDS011;39868;53.398;6.564;2023-06-10T15:11:37;4.85;;;4.40;;
53961;SDS011;39868;53.398;6.564;2023-06-10T15:14:04;6.32;;;4.82;;
53961;SDS011;39868;53.398;6.564;2023-06-10T15:16:32;6.32;;;4.60;;
53961;SDS011;39868;53.398;6.564;2023-06-10T15:19:00;5.00;;;4.18;;
53961;SDS011;39868;53.398;6.564;2023-06-10T15:21:27;5.20;;;4.70;;